createdAt,value
2018-07-04T00:00:41.302Z,75.23
2018-07-04T00:03:21.097Z,74.76
2018-07-04T00:06:00.824Z,76.10
2018-07-04T00:08:40.651Z,75.36
2018-07-04T00:11:20.352Z,75.53
2018-07-04T00:14:00.148Z,75.95
2018-07-04T00:16:39.994Z,76.59
2018-07-04T00:19:19.723Z,76.86
2018-07-04T00:21:59.383Z,76.65
2018-07-04T00:24:39.118Z,76.06
2018-07-04T00:27:19.060Z,76.50
2018-07-04T00:29:58.955Z,76.11
2018-07-04T00:32:38.666Z,76.68
2018-07-04T00:35:18.621Z,76.35
2018-07-04T00:37:58.559Z,76.05
2018-07-04T00:40:38.277Z,76.86
2018-07-04T00:43:17.942Z,76.82
2018-07-04T00:45:57.826Z,76.18
2018-07-04T00:48:37.556Z,76.54
2018-07-04T00:51:17.205Z,77.37
2018-07-04T00:53:57.182Z,77.08
2018-07-04T00:56:37.128Z,77.49
2018-07-04T00:59:16.914Z,77.42
2018-07-04T01:01:56.802Z,77.24
2018-07-04T01:04:36.546Z,77.75
2018-07-04T01:07:16.340Z,77.17
2018-07-04T01:09:56.126Z,77.55
2018-07-04T01:12:36.028Z,77.74
2018-07-04T01:15:15.886Z,78.04
2018-07-04T01:17:55.687Z,77.89
2018-07-04T01:20:40.687Z,77.02
2018-07-04T01:23:20.539Z,77.49
2018-07-04T01:26:00.220Z,77.00
2018-07-04T01:28:45.361Z,77.80
2018-07-04T01:31:25.349Z,77.62
2018-07-04T01:34:05.270Z,77.17
2018-07-04T01:36:45.251Z,77.76
2018-07-04T01:39:25.001Z,76.80
2018-07-04T01:42:04.881Z,77.71
2018-07-04T01:44:44.581Z,77.01
2018-07-04T01:47:24.446Z,77.73
2018-07-04T01:50:04.262Z,77.50
2018-07-04T01:52:44.077Z,77.17
2018-07-04T01:55:23.802Z,77.76
2018-07-04T01:58:03.768Z,78.08
2018-07-04T02:00:43.677Z,77.36
2018-07-04T02:03:23.480Z,78.67
2018-07-04T02:06:03.205Z,78.35
2018-07-04T02:08:42.975Z,77.60
2018-07-04T02:11:22.804Z,78.56
2018-07-04T02:14:02.591Z,78.39
2018-07-04T02:16:42.398Z,77.85
2018-07-04T02:19:22.158Z,78.16
2018-07-04T02:22:02.054Z,78.05
2018-07-04T02:24:41.817Z,79.04
2018-07-04T02:27:21.623Z,78.74
2018-07-04T02:30:01.682Z,78.89
2018-07-04T02:32:41.528Z,77.74
2018-07-04T02:35:21.325Z,77.96
2018-07-04T02:38:01.034Z,78.74
2018-07-04T02:40:41.019Z,78.01
2018-07-04T02:43:20.755Z,77.95
2018-07-04T02:46:00.489Z,78.64
2018-07-04T02:48:40.376Z,78.63
2018-07-04T02:51:20.162Z,78.76
2018-07-04T02:53:59.973Z,78.16
2018-07-04T02:56:39.783Z,78.73
2018-07-04T02:59:19.729Z,78.50
2018-07-04T03:01:59.561Z,78.79
2018-07-04T03:04:39.446Z,78.77
2018-07-04T03:07:19.174Z,78.63
2018-07-04T03:09:59.041Z,78.38
2018-07-04T03:12:38.858Z,78.37
2018-07-04T03:15:18.762Z,77.50
2018-07-04T03:17:58.432Z,77.64
2018-07-04T03:20:38.250Z,77.81
2018-07-04T03:23:18.014Z,78.85
2018-07-04T03:25:57.661Z,79.06
2018-07-04T03:28:37.562Z,77.79
2018-07-04T03:31:17.269Z,78.26
2018-07-04T03:33:57.266Z,78.77
2018-07-04T03:36:37.178Z,79.32
2018-07-04T03:39:16.892Z,79.34
2018-07-04T03:41:56.809Z,78.78
2018-07-04T03:44:36.627Z,78.62
2018-07-04T03:47:16.585Z,78.16
2018-07-04T03:49:56.636Z,77.89
2018-07-04T03:52:36.645Z,77.43
2018-07-04T03:55:16.510Z,77.13
2018-07-04T03:57:56.378Z,77.72
2018-07-04T04:00:36.098Z,76.82
2018-07-04T04:03:15.933Z,77.26
2018-07-04T04:05:55.601Z,76.46
2018-07-04T04:08:35.493Z,76.90
2018-07-04T04:11:15.352Z,76.90
2018-07-04T04:13:55.095Z,76.44
2018-07-04T04:16:34.994Z,75.40
2018-07-04T04:19:18.859Z,75.99
2018-07-04T04:21:58.764Z,74.56
2018-07-04T04:24:38.617Z,74.07
2018-07-04T04:29:51.498Z,73.93
2018-07-04T04:32:31.355Z,73.22
2018-07-04T04:35:11.127Z,73.98
2018-07-04T04:37:51.201Z,73.18
2018-07-04T04:40:31.117Z,73.71
2018-07-04T04:43:11.387Z,72.39
2018-07-04T04:45:51.352Z,71.78
2018-07-04T04:48:31.148Z,72.37
2018-07-04T04:51:11.007Z,71.03
2018-07-04T04:53:50.646Z,70.53
2018-07-04T04:56:30.362Z,70.40
2018-07-04T04:59:10.136Z,70.66
2018-07-04T05:01:50.067Z,70.28
2018-07-04T05:04:29.764Z,69.37
2018-07-04T05:07:09.574Z,69.82
2018-07-04T05:09:49.263Z,68.59
2018-07-04T05:12:28.969Z,67.67
2018-07-04T05:15:08.985Z,67.29
2018-07-04T05:17:48.817Z,67.58
2018-07-04T05:20:28.513Z,67.17
2018-07-04T05:23:08.418Z,65.50
2018-07-04T05:25:48.314Z,64.51
2018-07-04T05:28:28.266Z,63.71
2018-07-04T05:31:08.107Z,63.29
2018-07-04T05:33:48.082Z,63.76
2018-07-04T05:36:27.787Z,63.63
2018-07-04T05:39:07.656Z,62.58
2018-07-04T05:41:47.654Z,60.89
2018-07-04T05:44:27.491Z,59.78
2018-07-04T05:47:08.438Z,58.55
2018-07-04T05:49:48.332Z,58.19
2018-07-04T05:52:28.026Z,57.48
2018-07-04T05:55:07.717Z,59.70
2018-07-04T05:57:47.539Z,59.64
2018-07-04T06:00:27.443Z,59.12
2018-07-04T06:03:07.197Z,58.89
2018-07-04T06:05:47.111Z,57.42
2018-07-04T06:08:26.869Z,58.22
2018-07-04T06:11:06.688Z,58.27
2018-07-04T06:13:46.503Z,59.31
2018-07-04T06:16:26.230Z,58.84
2018-07-04T06:19:05.927Z,59.11
2018-07-04T06:21:45.663Z,58.74
2018-07-04T06:24:25.603Z,57.14
2018-07-04T06:27:05.371Z,56.82
2018-07-04T06:29:45.166Z,56.70
2018-07-04T06:32:25.163Z,58.26
2018-07-04T06:35:05.215Z,58.16
2018-07-04T06:37:36.827Z,60.04
2018-07-04T06:40:04.501Z,58.89
2018-07-04T06:42:31.974Z,58.61
2018-07-04T06:44:59.442Z,58.88
2018-07-04T06:47:26.896Z,60.21
2018-07-04T06:49:54.747Z,59.27
2018-07-04T06:52:22.308Z,58.73
2018-07-04T06:54:50.613Z,58.64
2018-07-04T06:57:19.056Z,59.30
2018-07-04T06:59:46.729Z,59.13
2018-07-04T07:02:15.722Z,58.25
2018-07-04T07:04:56.797Z,57.67
2018-07-04T07:07:36.623Z,58.04
2018-07-04T07:10:16.585Z,59.55
2018-07-04T07:12:56.478Z,58.55
2018-07-04T07:15:36.185Z,59.50
2018-07-04T07:18:16.224Z,58.64
2018-07-04T07:20:55.995Z,58.64
2018-07-04T07:23:35.737Z,59.29
2018-07-04T07:26:15.721Z,58.58
2018-07-04T07:28:55.604Z,59.08
2018-07-04T07:31:35.471Z,59.07
2018-07-04T07:34:15.292Z,57.19
2018-07-04T07:36:55.287Z,56.61
2018-07-04T07:39:35.099Z,56.83
2018-07-04T07:42:14.808Z,55.72
2018-07-04T07:44:54.678Z,56.24
2018-07-04T07:47:34.477Z,55.23
2018-07-04T07:50:14.926Z,56.29
2018-07-04T07:52:54.774Z,56.71
2018-07-04T07:55:34.430Z,56.65
2018-07-04T07:58:14.355Z,56.06
2018-07-04T08:00:54.342Z,56.41
2018-07-04T08:03:34.152Z,55.46
2018-07-04T08:06:13.820Z,55.97
2018-07-04T08:08:53.781Z,55.63
2018-07-04T08:11:33.510Z,55.61
2018-07-04T08:14:13.377Z,55.59
2018-07-04T08:16:53.183Z,56.55
2018-07-04T08:19:33.006Z,54.36
2018-07-04T08:22:12.853Z,55.81
2018-07-04T08:24:52.808Z,55.27
2018-07-04T08:27:32.696Z,56.07
2018-07-04T08:30:12.685Z,55.42
2018-07-04T08:32:52.348Z,55.23
2018-07-04T08:35:32.031Z,55.78
2018-07-04T08:38:11.771Z,55.65
2018-07-04T08:40:51.576Z,56.14
2018-07-04T08:43:31.391Z,56.04
2018-07-04T08:46:11.287Z,55.94
2018-07-04T08:48:51.151Z,56.73
2018-07-04T08:51:31.050Z,54.96
2018-07-04T08:54:10.933Z,55.99
2018-07-04T08:56:50.680Z,55.47
2018-07-04T08:59:30.531Z,54.94
2018-07-04T09:02:10.361Z,55.29
2018-07-04T09:04:50.114Z,55.28
2018-07-04T09:07:29.868Z,56.80
2018-07-04T09:10:09.688Z,54.99
2018-07-04T09:12:49.432Z,55.17
2018-07-04T09:15:29.324Z,54.36
2018-07-04T09:18:09.277Z,54.65
2018-07-04T09:20:49.195Z,54.82
2018-07-04T09:23:29.009Z,55.23
2018-07-04T09:26:08.914Z,54.47
2018-07-04T09:28:48.555Z,54.04
2018-07-04T09:31:28.389Z,53.93
2018-07-04T09:34:08.231Z,54.73
2018-07-04T09:36:48.212Z,54.70
2018-07-04T09:39:27.953Z,54.57
2018-07-04T09:42:07.717Z,53.17
2018-07-04T09:44:47.686Z,54.81
2018-07-04T09:47:27.446Z,53.30
2018-07-04T09:50:08.136Z,52.77
2018-07-04T09:52:47.922Z,52.08
2018-07-04T09:55:27.700Z,51.91
2018-07-04T09:58:07.491Z,52.04
2018-07-04T10:00:52.620Z,53.22
2018-07-04T10:03:32.437Z,53.19
2018-07-04T10:06:12.126Z,52.54
2018-07-04T10:08:52.039Z,51.28
2018-07-04T10:11:31.866Z,50.97
2018-07-04T10:14:11.803Z,50.55
2018-07-04T10:16:51.760Z,50.56
2018-07-04T10:19:31.719Z,49.46
2018-07-04T10:22:11.537Z,49.24
2018-07-04T10:24:51.250Z,50.46
2018-07-04T10:30:23.484Z,49.07
2018-07-04T10:33:03.242Z,48.73
2018-07-04T10:35:43.070Z,50.27
2018-07-04T10:38:23.194Z,49.25
2018-07-04T10:41:02.932Z,49.16
2018-07-04T10:43:43.002Z,48.89
2018-07-04T10:46:22.899Z,49.23
2018-07-04T10:49:02.684Z,48.44
2018-07-04T10:51:42.423Z,48.53
2018-07-04T10:54:22.278Z,47.06
2018-07-04T10:57:01.853Z,48.26
2018-07-04T10:59:41.680Z,48.61
2018-07-04T11:02:21.546Z,47.28
2018-07-04T11:05:01.383Z,47.31
2018-07-04T11:07:41.267Z,46.78
2018-07-04T11:10:21.203Z,47.64
2018-07-04T11:13:02.022Z,48.19
2018-07-04T11:15:41.733Z,47.43
2018-07-04T11:18:21.872Z,47.94
2018-07-04T11:21:01.811Z,47.23
2018-07-04T11:23:41.574Z,47.99
2018-07-04T11:26:21.272Z,48.20
2018-07-04T11:29:01.021Z,47.53
2018-07-04T11:31:40.952Z,48.96
2018-07-04T11:34:20.769Z,49.20
2018-07-04T11:37:00.446Z,48.99
2018-07-04T11:39:40.141Z,48.57
2018-07-04T11:42:20.075Z,49.36
2018-07-04T11:44:59.863Z,48.28
2018-07-04T11:47:27.356Z,47.81
2018-07-04T11:49:54.967Z,47.87
2018-07-04T11:52:22.403Z,49.14
2018-07-04T11:54:49.920Z,50.09
2018-07-04T11:57:17.367Z,49.30
2018-07-04T11:59:45.152Z,50.53
2018-07-04T12:02:12.714Z,46.84
2018-07-04T12:04:52.589Z,47.97
2018-07-04T12:07:20.091Z,50.08
2018-07-04T12:09:47.545Z,50.00
2018-07-04T12:12:15.000Z,50.80
2018-07-04T12:14:42.491Z,49.99
2018-07-04T12:17:10.078Z,49.91
2018-07-04T12:19:37.664Z,51.02
2018-07-04T12:22:05.158Z,51.24
2018-07-04T12:24:32.683Z,51.36
2018-07-04T12:27:01.304Z,51.54
2018-07-04T12:29:28.959Z,51.25
2018-07-04T12:31:56.473Z,50.56
2018-07-04T12:34:24.844Z,49.97
2018-07-04T12:36:52.336Z,49.52
2018-07-04T12:39:19.781Z,48.89
2018-07-04T12:41:47.282Z,48.42
2018-07-04T12:44:14.801Z,48.41
2018-07-04T12:46:42.253Z,48.80
2018-07-04T12:49:09.714Z,49.33
2018-07-04T12:51:37.232Z,48.15
2018-07-04T12:54:10.143Z,49.11
2018-07-04T12:56:50.039Z,49.59
2018-07-04T12:59:29.943Z,49.85
2018-07-04T13:02:10.029Z,49.80
2018-07-04T13:04:49.757Z,50.29
2018-07-04T13:07:29.687Z,50.21
2018-07-04T13:10:09.667Z,49.82
2018-07-04T13:12:49.540Z,50.65
2018-07-04T13:15:29.437Z,50.56
2018-07-04T13:18:09.276Z,50.48
2018-07-04T13:20:49.728Z,49.91
2018-07-04T13:23:29.682Z,49.46
2018-07-04T13:26:09.648Z,49.96
2018-07-04T13:28:49.483Z,50.48
2018-07-04T13:31:29.267Z,50.71
2018-07-04T13:34:09.061Z,49.33
2018-07-04T13:36:48.899Z,50.01
2018-07-04T13:39:28.595Z,50.85
2018-07-04T13:42:08.278Z,50.94
2018-07-04T13:44:48.005Z,50.34
2018-07-04T13:47:27.691Z,51.29
2018-07-04T13:50:07.473Z,49.90
2018-07-04T13:52:47.371Z,49.02
2018-07-04T13:55:27.087Z,48.73
2018-07-04T13:58:06.727Z,50.29
2018-07-04T14:00:46.637Z,48.72
2018-07-04T14:03:26.556Z,49.16
2018-07-04T14:06:06.707Z,48.28
2018-07-04T14:08:46.416Z,46.50
2018-07-04T14:11:26.313Z,44.11
2018-07-04T14:14:06.026Z,42.58
2018-07-04T14:16:45.731Z,44.28
2018-07-04T14:19:25.817Z,45.14
2018-07-04T14:22:05.627Z,43.88
2018-07-04T14:24:45.388Z,45.53
2018-07-04T14:27:25.036Z,45.05
2018-07-04T14:30:04.886Z,47.09
2018-07-04T14:32:44.811Z,49.00
2018-07-04T14:35:24.684Z,50.88
2018-07-04T14:38:04.301Z,52.64
2018-07-04T14:40:44.138Z,53.29
2018-07-04T14:43:24.174Z,53.81
2018-07-04T14:46:03.905Z,55.66
2018-07-04T14:48:43.638Z,54.58
2018-07-04T14:51:23.301Z,57.77
2018-07-04T14:54:03.110Z,58.27
2018-07-04T14:56:43.091Z,58.90
2018-07-04T14:59:22.949Z,60.33
2018-07-04T15:02:02.783Z,61.70
2018-07-04T15:04:42.786Z,60.59
2018-07-04T15:07:22.790Z,59.94
2018-07-04T15:10:02.525Z,60.46
2018-07-04T15:12:42.354Z,60.46
2018-07-04T15:15:22.062Z,62.16
2018-07-04T15:18:01.758Z,62.09
2018-07-04T15:20:41.678Z,64.57
2018-07-04T15:23:21.442Z,65.90
2018-07-04T15:26:01.439Z,66.18
2018-07-04T15:28:41.161Z,69.02
2018-07-04T15:31:20.921Z,75.36
2018-07-04T15:34:00.769Z,74.90
2018-07-04T15:36:40.522Z,72.49
2018-07-04T15:39:20.365Z,75.88
2018-07-04T15:42:00.039Z,77.63
2018-07-04T15:44:40.070Z,77.45
2018-07-04T15:47:19.942Z,77.05
2018-07-04T15:49:59.867Z,76.04
2018-07-04T15:52:39.734Z,77.44
2018-07-04T15:55:19.517Z,81.04
2018-07-04T15:57:59.215Z,82.13
2018-07-04T16:00:41.055Z,81.45
2018-07-04T16:03:20.726Z,82.95
2018-07-04T16:06:00.512Z,80.89
2018-07-04T16:08:40.354Z,79.90
2018-07-04T16:11:20.145Z,81.57
2018-07-04T16:13:59.917Z,80.64
2018-07-04T16:16:39.707Z,79.90
2018-07-04T16:19:19.573Z,80.62
2018-07-04T16:21:59.711Z,79.42
2018-07-04T16:24:39.626Z,81.53
2018-07-04T16:27:19.333Z,82.07
2018-07-04T16:29:59.230Z,83.56
2018-07-04T16:32:38.969Z,83.24
2018-07-04T16:35:18.824Z,82.08
2018-07-04T16:37:58.668Z,83.33
2018-07-04T16:42:07.681Z,83.38
2018-07-04T16:44:47.399Z,83.38
2018-07-04T16:47:27.259Z,83.73
2018-07-04T16:50:07.156Z,84.23
2018-07-04T16:52:46.847Z,85.28
2018-07-04T16:55:26.742Z,85.16
2018-07-04T16:58:06.438Z,84.81
2018-07-04T17:00:46.391Z,83.77
2018-07-04T17:03:26.525Z,84.09
2018-07-04T17:06:06.296Z,84.16
2018-07-04T17:08:46.086Z,84.16
2018-07-04T17:11:25.823Z,84.13
2018-07-04T17:14:05.602Z,84.03
2018-07-04T17:16:45.451Z,84.69
2018-07-04T17:19:25.458Z,85.49
2018-07-04T17:22:05.214Z,85.14
2018-07-04T17:24:45.038Z,84.93
2018-07-04T17:27:25.060Z,85.79
2018-07-04T17:30:05.016Z,84.68
2018-07-04T17:32:44.784Z,83.81
2018-07-04T17:35:24.616Z,84.23
2018-07-04T17:38:04.350Z,84.14
2018-07-04T17:40:44.146Z,83.84
2018-07-04T17:43:23.998Z,83.62
2018-07-04T17:46:03.868Z,83.59
2018-07-04T17:48:43.760Z,83.29
2018-07-04T17:51:23.414Z,82.65
2018-07-04T17:54:03.332Z,83.77
2018-07-04T17:56:43.142Z,83.81
2018-07-04T17:59:22.978Z,82.18
2018-07-04T18:02:02.700Z,82.76
2018-07-04T18:04:42.633Z,82.63
2018-07-04T18:07:22.441Z,82.65
2018-07-04T18:10:02.153Z,80.40
2018-07-04T18:12:41.949Z,81.35
2018-07-04T18:15:21.643Z,81.08
2018-07-04T18:18:01.501Z,81.04
2018-07-04T18:20:41.540Z,82.21
2018-07-04T18:23:21.342Z,81.95
2018-07-04T18:26:01.170Z,83.26
2018-07-04T18:28:40.980Z,81.98
2018-07-04T18:31:20.821Z,82.49
2018-07-04T18:34:00.514Z,83.42
2018-07-04T18:36:40.183Z,82.58
2018-07-04T18:39:20.233Z,83.67
2018-07-04T18:42:00.114Z,83.34
2018-07-04T18:44:39.976Z,83.21
2018-07-04T18:47:19.729Z,83.72
2018-07-04T18:49:59.635Z,84.21
2018-07-04T18:52:39.315Z,83.01
2018-07-04T18:55:18.958Z,82.37
2018-07-04T18:57:58.905Z,82.80
2018-07-04T19:00:38.746Z,83.22
2018-07-04T19:03:18.400Z,82.97
2018-07-04T19:05:58.211Z,82.58
2018-07-04T19:08:38.261Z,82.74
2018-07-04T19:11:18.148Z,82.91
2018-07-04T19:13:57.765Z,82.35
2018-07-04T19:16:37.729Z,83.17
2018-07-04T19:19:17.583Z,81.83
2018-07-04T19:21:57.434Z,82.44
2018-07-04T19:24:37.769Z,82.80
2018-07-04T19:27:17.645Z,82.56
2018-07-04T19:29:57.633Z,82.13
2018-07-04T19:32:37.331Z,81.65
2018-07-04T19:35:17.261Z,82.62
2018-07-04T19:37:56.937Z,81.54
2018-07-04T19:40:36.749Z,82.38
2018-07-04T19:43:16.426Z,81.86
2018-07-04T19:45:56.333Z,81.99
2018-07-04T19:48:36.264Z,82.48
2018-07-04T19:51:16.024Z,81.73
2018-07-04T19:53:55.777Z,82.11
2018-07-04T19:56:35.749Z,82.46
2018-07-04T19:59:15.561Z,83.64
2018-07-04T20:01:55.490Z,83.44
2018-07-04T20:04:35.221Z,82.88
2018-07-04T20:07:15.018Z,83.87
2018-07-04T20:09:55.089Z,82.54
2018-07-04T20:12:35.024Z,82.72
2018-07-04T20:15:14.849Z,84.08
2018-07-04T20:17:54.556Z,83.75
2018-07-04T20:20:34.659Z,83.90
2018-07-04T20:23:14.373Z,84.62
2018-07-04T20:25:54.102Z,84.44
2018-07-04T20:28:33.740Z,84.10
2018-07-04T20:31:13.602Z,83.91
2018-07-04T20:33:53.497Z,83.71
2018-07-04T20:36:33.270Z,83.45
2018-07-04T20:39:14.779Z,84.24
2018-07-04T20:41:54.530Z,83.11
2018-07-04T20:44:34.489Z,83.80
2018-07-04T20:47:14.446Z,82.64
2018-07-04T20:49:54.381Z,82.94
2018-07-04T20:52:34.250Z,83.36
2018-07-04T20:55:14.103Z,83.27
2018-07-04T20:57:53.841Z,83.28
2018-07-04T21:00:33.620Z,82.56
2018-07-04T21:03:13.572Z,83.95
2018-07-04T21:05:53.400Z,83.06
2018-07-04T21:08:34.443Z,83.90
2018-07-04T21:11:17.061Z,84.08
2018-07-04T21:13:58.545Z,84.16
2018-07-04T21:16:38.255Z,82.89
2018-07-04T21:19:17.949Z,82.54
2018-07-04T21:21:57.871Z,83.07
2018-07-04T21:24:37.816Z,82.31
2018-07-04T21:27:17.730Z,82.47
2018-07-04T21:29:57.453Z,82.89
2018-07-04T21:32:37.314Z,82.82
2018-07-04T21:35:17.081Z,83.19
2018-07-04T21:37:56.935Z,83.22
2018-07-04T21:40:36.735Z,83.82
2018-07-04T21:43:16.494Z,84.08
2018-07-04T21:45:56.210Z,83.81
2018-07-04T21:48:37.108Z,83.87
2018-07-04T21:51:16.921Z,83.37
2018-07-04T21:53:56.875Z,84.24
2018-07-04T21:56:36.699Z,83.04
2018-07-04T21:59:16.425Z,83.59
2018-07-04T22:01:56.364Z,83.91
2018-07-04T22:04:36.120Z,82.20
2018-07-04T22:07:15.918Z,81.70
2018-07-04T22:09:55.794Z,81.44
2018-07-04T22:12:35.599Z,81.45
2018-07-04T22:15:15.424Z,81.04
2018-07-04T22:17:55.214Z,80.93
2018-07-04T22:20:34.874Z,80.26
2018-07-04T22:23:14.652Z,80.61
2018-07-04T22:25:54.469Z,81.86
2018-07-04T22:28:34.398Z,81.14
2018-07-04T22:31:14.093Z,82.03
2018-07-04T22:33:54.007Z,80.68
2018-07-04T22:36:33.886Z,80.65
2018-07-04T22:39:13.673Z,80.42
2018-07-04T22:41:53.557Z,80.84
2018-07-04T22:44:33.552Z,81.30
2018-07-04T22:47:13.427Z,81.18
2018-07-04T22:49:53.148Z,81.01
2018-07-04T22:52:33.032Z,81.68
2018-07-04T22:55:13.080Z,82.05
2018-07-04T22:57:52.890Z,81.78
2018-07-04T23:00:32.787Z,81.36
2018-07-04T23:03:12.574Z,81.62
2018-07-04T23:05:52.338Z,80.98
2018-07-04T23:08:32.231Z,80.30
2018-07-04T23:11:12.023Z,81.08
2018-07-04T23:13:51.811Z,81.35
2018-07-04T23:16:31.693Z,81.83
2018-07-04T23:19:11.417Z,81.63
2018-07-04T23:21:51.146Z,81.23
2018-07-04T23:24:31.018Z,82.40
2018-07-04T23:27:10.797Z,82.64
2018-07-04T23:29:50.610Z,82.57
2018-07-04T23:32:30.471Z,82.90
2018-07-04T23:35:10.278Z,83.27
2018-07-04T23:37:50.073Z,83.19
2018-07-04T23:40:29.860Z,83.42
2018-07-04T23:43:09.675Z,82.82
2018-07-04T23:45:49.655Z,83.84
2018-07-04T23:48:29.450Z,83.76
2018-07-04T23:51:09.257Z,83.99
2018-07-04T23:53:49.409Z,83.20
2018-07-04T23:56:29.052Z,83.83
2018-07-04T23:59:08.948Z,82.66
